createdAt,value
2018-02-14T00:01:08.801Z,4.53
2018-02-14T00:03:36.781Z,4.25
2018-02-14T00:06:04.858Z,4.70
2018-02-14T00:08:32.816Z,4.12
2018-02-14T00:11:00.697Z,4.25
2018-02-14T00:13:28.604Z,5.35
2018-02-14T00:15:56.492Z,4.93
2018-02-14T00:18:24.388Z,3.83
2018-02-14T00:20:52.276Z,4.85
2018-02-14T00:23:20.172Z,4.32
2018-02-14T00:25:48.060Z,4.55
2018-02-14T00:28:15.964Z,4.85
2018-02-14T00:30:43.882Z,4.53
2018-02-14T00:33:11.783Z,4.68
2018-02-14T00:35:39.707Z,4.55
2018-02-14T00:38:07.625Z,5.80
2018-02-14T00:40:35.528Z,4.65
2018-02-14T00:43:03.451Z,4.45
2018-02-14T00:45:31.340Z,5.07
2018-02-14T00:47:59.248Z,5.15
2018-02-14T00:50:27.160Z,6.18
2018-02-14T00:52:55.040Z,5.00
2018-02-14T00:55:23.948Z,6.55
2018-02-14T00:57:51.873Z,4.82
2018-02-14T01:00:19.756Z,5.60
2018-02-14T01:02:47.667Z,4.43
2018-02-14T01:05:15.591Z,5.32
2018-02-14T01:07:43.472Z,5.30
2018-02-14T01:10:11.373Z,5.60
2018-02-14T01:12:39.280Z,5.43
2018-02-14T01:15:07.180Z,5.20
2018-02-14T01:17:35.076Z,5.35
2018-02-14T01:20:07.959Z,4.62
2018-02-14T01:22:35.860Z,5.22
2018-02-14T01:25:03.757Z,4.62
2018-02-14T01:27:31.640Z,5.47
2018-02-14T01:29:59.544Z,5.95
2018-02-14T01:32:27.456Z,5.53
2018-02-14T01:34:55.368Z,6.05
2018-02-14T01:37:23.262Z,4.90
2018-02-14T01:39:51.171Z,5.07
2018-02-14T01:42:19.082Z,5.50
2018-02-14T01:44:46.980Z,6.28
2018-02-14T01:47:14.893Z,5.82
2018-02-14T01:49:42.781Z,6.15
2018-02-14T01:52:10.688Z,6.25
2018-02-14T01:54:38.585Z,5.55
2018-02-14T01:57:06.464Z,6.47
2018-02-14T01:59:34.385Z,6.82
2018-02-14T02:02:02.351Z,5.80
2018-02-14T02:04:30.228Z,6.53
2018-02-14T02:06:58.129Z,5.10
2018-02-14T02:09:26.034Z,6.32
2018-02-14T02:11:53.936Z,6.43
2018-02-14T02:14:21.832Z,5.18
2018-02-14T02:16:49.740Z,6.40
2018-02-14T02:19:17.640Z,7.07
2018-02-14T02:21:45.528Z,6.78
2018-02-14T02:24:13.464Z,5.82
2018-02-14T02:26:41.368Z,5.97
2018-02-14T02:29:09.252Z,6.03
2018-02-14T02:31:37.176Z,6.95
2018-02-14T02:34:05.070Z,6.60
2018-02-14T02:36:32.971Z,6.43
2018-02-14T02:39:00.888Z,5.32
2018-02-14T02:41:28.788Z,5.95
2018-02-14T02:43:56.680Z,6.50
2018-02-14T02:46:24.603Z,6.22
2018-02-14T02:48:52.488Z,6.75
2018-02-14T02:51:20.380Z,6.95
2018-02-14T02:53:48.275Z,5.95
2018-02-14T02:56:16.168Z,5.35
2018-02-14T02:58:44.056Z,7.22
2018-02-14T03:01:11.968Z,5.85
2018-02-14T03:03:39.875Z,6.37
2018-02-14T03:06:07.764Z,7.22
2018-02-14T03:08:35.662Z,6.70
2018-02-14T03:11:03.585Z,8.05
2018-02-14T03:13:31.480Z,6.47
2018-02-14T03:15:59.380Z,5.70
2018-02-14T03:18:27.280Z,7.05
2018-02-14T03:20:55.172Z,6.72
2018-02-14T03:23:23.070Z,6.32
2018-02-14T03:25:50.972Z,7.25
2018-02-14T03:28:18.866Z,6.87
2018-02-14T03:30:46.761Z,6.30
2018-02-14T03:33:14.675Z,6.85
2018-02-14T03:35:42.559Z,7.60
2018-02-14T03:38:10.476Z,6.07
2018-02-14T03:40:38.356Z,6.20
2018-02-14T03:43:06.278Z,7.32
2018-02-14T03:45:34.200Z,6.40
2018-02-14T03:48:02.073Z,7.12
2018-02-14T03:50:29.972Z,6.85
2018-02-14T03:52:57.872Z,7.75
2018-02-14T03:55:26.784Z,7.30
2018-02-14T03:57:54.708Z,7.15
2018-02-14T04:00:22.723Z,7.70
2018-02-14T04:02:50.603Z,6.60
2018-02-14T04:05:18.532Z,7.15
2018-02-14T04:07:47.444Z,7.40
2018-02-14T04:10:15.336Z,8.27
2018-02-14T04:12:43.233Z,7.12
2018-02-14T04:15:11.156Z,7.80
2018-02-14T04:17:39.037Z,6.12
2018-02-14T04:20:06.939Z,6.80
2018-02-14T04:22:34.863Z,7.28
2018-02-14T04:25:02.793Z,6.80
2018-02-14T04:27:30.697Z,9.15
2018-02-14T04:29:58.610Z,9.57
2018-02-14T04:32:26.493Z,7.37
2018-02-14T04:34:54.411Z,8.07
2018-02-14T04:37:22.307Z,7.65
2018-02-14T04:39:50.243Z,7.72
2018-02-14T04:42:18.310Z,7.25
2018-02-14T04:44:46.229Z,8.15
2018-02-14T04:47:14.117Z,7.15
2018-02-14T04:49:42.021Z,6.70
2018-02-14T04:52:09.932Z,7.15
2018-02-14T04:54:37.832Z,6.82
2018-02-14T04:57:05.720Z,6.80
2018-02-14T04:59:33.632Z,7.85
2018-02-14T05:02:01.532Z,6.72
2018-02-14T05:04:29.416Z,8.27
2018-02-14T05:06:57.316Z,6.20
2018-02-14T05:09:25.208Z,7.22
2018-02-14T05:11:53.092Z,8.50
2018-02-14T05:14:21.001Z,7.28
2018-02-14T05:16:48.913Z,7.40
2018-02-14T05:19:16.809Z,6.80
2018-02-14T05:21:44.716Z,6.70
2018-02-14T05:24:12.628Z,7.53
2018-02-14T05:26:40.512Z,6.95
2018-02-14T05:29:08.417Z,7.28
2018-02-14T05:31:36.327Z,7.28
2018-02-14T05:34:04.227Z,6.93
2018-02-14T05:36:32.133Z,7.87
2018-02-14T05:39:00.041Z,9.95
2018-02-14T05:41:27.936Z,6.90
2018-02-14T05:43:55.860Z,7.43
2018-02-14T05:46:23.752Z,8.60
2018-02-14T05:48:51.644Z,7.82
2018-02-14T05:51:19.559Z,8.38
2018-02-14T05:53:48.540Z,6.93
2018-02-14T05:56:16.436Z,7.72
2018-02-14T05:58:44.359Z,8.75
2018-02-14T06:01:12.251Z,7.95
2018-02-14T06:03:40.204Z,7.30
2018-02-14T06:06:08.181Z,7.90
2018-02-14T06:08:36.096Z,7.68
2018-02-14T06:11:04.048Z,8.23
2018-02-14T06:13:31.974Z,6.85
2018-02-14T06:15:59.880Z,6.80
2018-02-14T06:18:27.796Z,6.60
2018-02-14T06:20:55.705Z,7.72
2018-02-14T06:23:23.627Z,8.25
2018-02-14T06:25:51.514Z,5.93
2018-02-14T06:28:19.428Z,7.93
2018-02-14T06:30:47.340Z,7.47
2018-02-14T06:33:15.224Z,7.40
2018-02-14T06:35:43.147Z,7.40
2018-02-14T06:38:12.127Z,6.28
2018-02-14T06:40:40.036Z,7.05
2018-02-14T06:43:07.940Z,8.20
2018-02-14T06:45:35.832Z,6.20
2018-02-14T06:48:03.717Z,8.57
2018-02-14T06:50:31.672Z,6.15
2018-02-14T06:53:00.624Z,7.05
2018-02-14T06:55:29.620Z,7.47
2018-02-14T06:57:57.540Z,8.15
2018-02-14T07:00:26.527Z,7.80
2018-02-14T07:02:54.482Z,6.05
2018-02-14T07:05:22.388Z,7.43
2018-02-14T07:07:50.275Z,6.18
2018-02-14T07:10:18.172Z,6.55
2018-02-14T07:12:46.092Z,8.20
2018-02-14T07:15:13.991Z,6.95
2018-02-14T07:17:41.872Z,8.13
2018-02-14T07:20:09.762Z,8.35
2018-02-14T07:22:37.719Z,7.95
2018-02-14T07:25:05.615Z,7.15
2018-02-14T07:27:33.528Z,7.47
2018-02-14T07:30:01.432Z,7.10
2018-02-14T07:32:29.322Z,6.45
2018-02-14T07:34:57.229Z,7.30
2018-02-14T07:37:25.119Z,6.75
2018-02-14T07:39:53.003Z,7.30
2018-02-14T07:42:21.936Z,7.60
2018-02-14T07:44:49.816Z,8.40
2018-02-14T07:47:17.708Z,6.55
2018-02-14T07:49:45.619Z,9.32
2018-02-14T07:52:13.508Z,6.80
2018-02-14T07:54:41.404Z,7.50
2018-02-14T07:57:09.319Z,7.80
2018-02-14T07:59:37.216Z,7.47
2018-02-14T08:02:05.108Z,8.40
2018-02-14T08:04:33.020Z,8.05
2018-02-14T08:07:00.920Z,8.60
2018-02-14T08:09:28.820Z,8.93
2018-02-14T08:11:56.756Z,6.90
2018-02-14T08:14:24.648Z,8.10
2018-02-14T08:16:52.543Z,6.15
2018-02-14T08:19:20.465Z,8.15
2018-02-14T08:21:48.362Z,6.70
2018-02-14T08:24:16.252Z,7.78
2018-02-14T08:26:44.172Z,8.45
2018-02-14T08:29:12.083Z,6.85
2018-02-14T08:31:39.988Z,8.00
2018-02-14T08:34:07.885Z,8.18
2018-02-14T08:36:35.806Z,8.07
2018-02-14T08:39:03.707Z,7.32
2018-02-14T08:41:32.652Z,8.85
2018-02-14T08:44:00.532Z,7.35
2018-02-14T08:46:28.416Z,7.60
2018-02-14T08:48:56.337Z,8.13
2018-02-14T08:51:24.213Z,7.37
2018-02-14T08:53:52.100Z,7.40
2018-02-14T08:56:20.008Z,7.82
2018-02-14T08:58:47.895Z,7.50
2018-02-14T09:01:15.785Z,8.23
2018-02-14T09:03:43.699Z,8.88
2018-02-14T09:06:11.591Z,8.30
2018-02-14T09:08:39.471Z,8.55
2018-02-14T09:11:07.425Z,8.57
2018-02-14T09:16:03.162Z,7.70
2018-02-14T09:18:31.087Z,8.43
2018-02-14T09:20:58.987Z,8.50
2018-02-14T09:23:26.868Z,9.30
2018-02-14T09:25:54.787Z,10.57
2018-02-14T09:28:22.680Z,8.75
2018-02-14T09:30:50.620Z,8.80
2018-02-14T09:33:18.532Z,7.57
2018-02-14T09:35:46.424Z,9.23
2018-02-14T09:38:14.323Z,8.20
2018-02-14T09:40:42.237Z,8.70
2018-02-14T09:43:10.111Z,8.67
2018-02-14T09:45:38.014Z,9.23
2018-02-14T09:48:05.908Z,9.07
2018-02-14T09:50:33.802Z,9.00
2018-02-14T09:53:01.704Z,8.10
2018-02-14T09:55:29.603Z,10.20
2018-02-14T09:57:57.605Z,8.90
2018-02-14T10:00:25.508Z,8.67
2018-02-14T10:02:53.420Z,9.00
2018-02-14T10:05:21.292Z,10.07
2018-02-14T10:07:50.196Z,9.57
2018-02-14T10:10:18.092Z,9.20
2018-02-14T10:12:45.988Z,9.20
2018-02-14T10:15:13.896Z,10.40
2018-02-14T10:17:41.800Z,10.03
2018-02-14T10:20:09.716Z,9.60
2018-02-14T10:22:37.600Z,8.63
2018-02-14T10:25:05.503Z,8.40
2018-02-14T10:27:33.404Z,9.45
2018-02-14T10:30:01.300Z,8.68
2018-02-14T10:32:29.204Z,9.75
2018-02-14T10:34:57.104Z,8.82
2018-02-14T10:37:24.996Z,8.80
2018-02-14T10:39:52.927Z,9.63
2018-02-14T10:42:20.812Z,8.70
2018-02-14T10:44:48.700Z,9.57
2018-02-14T10:47:16.608Z,8.65
2018-02-14T10:49:44.496Z,9.52
2018-02-14T10:52:12.380Z,7.47
2018-02-14T10:54:40.291Z,8.70
2018-02-14T10:57:08.174Z,7.72
2018-02-14T10:59:36.071Z,8.43
2018-02-14T11:02:09.890Z,8.13
2018-02-14T11:04:43.960Z,8.70
2018-02-14T11:07:17.914Z,7.65
2018-02-14T11:09:45.870Z,8.30
2018-02-14T11:12:13.780Z,7.85
2018-02-14T11:14:41.672Z,8.25
2018-02-14T11:17:09.576Z,6.87
2018-02-14T11:19:37.519Z,6.65
2018-02-14T11:22:05.412Z,7.28
2018-02-14T11:24:33.299Z,7.65
2018-02-14T11:27:01.192Z,6.30
2018-02-14T11:29:29.088Z,6.95
2018-02-14T11:31:56.973Z,6.65
2018-02-14T11:34:24.876Z,7.00
2018-02-14T11:36:52.776Z,6.90
2018-02-14T11:39:20.660Z,7.45
2018-02-14T11:41:48.552Z,7.70
2018-02-14T11:44:16.443Z,7.68
2018-02-14T11:46:44.336Z,6.45
2018-02-14T11:49:12.240Z,7.20
2018-02-14T11:51:40.136Z,7.00
2018-02-14T11:54:08.036Z,6.50
2018-02-14T11:56:35.928Z,6.90
2018-02-14T11:59:03.812Z,7.95
2018-02-14T12:01:31.726Z,6.97
2018-02-14T12:03:59.624Z,8.05
2018-02-14T12:06:27.532Z,7.20
2018-02-14T12:08:55.616Z,7.80
2018-02-14T12:11:23.512Z,7.00
2018-02-14T12:13:52.496Z,7.43
2018-02-14T12:16:20.420Z,9.35
2018-02-14T12:18:48.317Z,7.75
2018-02-14T12:21:16.208Z,8.50
2018-02-14T12:23:44.108Z,8.23
2018-02-14T12:26:12.031Z,6.57
2018-02-14T12:28:39.922Z,7.50
2018-02-14T12:31:07.814Z,7.65
2018-02-14T12:33:35.732Z,8.02
2018-02-14T12:36:03.621Z,8.20
2018-02-14T12:38:31.536Z,6.85
2018-02-14T12:40:59.442Z,7.60
2018-02-14T12:43:27.336Z,7.50
2018-02-14T12:45:55.223Z,7.40
2018-02-14T12:48:23.128Z,8.95
2018-02-14T12:50:51.028Z,6.32
2018-02-14T12:53:18.944Z,7.78
2018-02-14T12:55:46.815Z,7.37
2018-02-14T12:58:15.563Z,8.48
2018-02-14T13:00:43.486Z,7.55
2018-02-14T13:03:11.375Z,8.07
2018-02-14T13:05:39.277Z,8.05
2018-02-14T13:08:07.188Z,8.68
2018-02-14T13:10:35.080Z,7.40
2018-02-14T13:13:02.994Z,7.18
2018-02-14T13:15:30.903Z,8.05
2018-02-14T13:17:58.792Z,8.00
2018-02-14T13:20:26.691Z,8.00
2018-02-14T13:22:54.620Z,8.30
2018-02-14T13:25:22.507Z,7.72
2018-02-14T13:27:51.492Z,8.00
2018-02-14T13:30:19.387Z,8.13
2018-02-14T13:32:47.276Z,8.75
2018-02-14T13:35:15.180Z,6.87
2018-02-14T13:37:43.104Z,7.75
2018-02-14T13:40:10.991Z,8.73
2018-02-14T13:42:38.884Z,7.80
2018-02-14T13:45:06.788Z,8.68
2018-02-14T13:47:34.704Z,7.40
2018-02-14T13:50:02.597Z,7.72
2018-02-14T13:52:30.532Z,7.32
2018-02-14T13:54:58.425Z,8.00
2018-02-14T13:57:26.326Z,7.80
2018-02-14T13:59:54.216Z,8.05
2018-02-14T14:02:22.228Z,8.00
2018-02-14T14:04:50.108Z,7.57
2018-02-14T14:07:18.016Z,7.28
2018-02-14T14:09:45.932Z,6.72
2018-02-14T14:12:13.821Z,7.70
2018-02-14T14:14:41.731Z,7.45
2018-02-14T14:17:09.624Z,7.10
2018-02-14T14:19:37.532Z,7.90
2018-02-14T14:22:05.421Z,6.68
2018-02-14T14:24:33.308Z,7.15
2018-02-14T14:27:01.204Z,7.22
2018-02-14T14:29:29.094Z,6.80
2018-02-14T14:31:56.999Z,7.18
2018-02-14T14:34:24.875Z,7.35
2018-02-14T14:36:52.784Z,7.15
2018-02-14T14:39:20.662Z,6.68
2018-02-14T14:41:48.544Z,6.97
2018-02-14T14:44:16.480Z,5.85
2018-02-14T14:46:44.361Z,5.82
2018-02-14T14:49:12.261Z,6.72
2018-02-14T14:51:40.176Z,6.05
2018-02-14T14:54:08.067Z,6.75
2018-02-14T14:56:35.996Z,7.37
2018-02-14T14:59:03.887Z,5.78
2018-02-14T15:01:31.764Z,5.97
2018-02-14T15:03:59.716Z,6.05
2018-02-14T15:06:27.608Z,6.68
2018-02-14T15:08:55.508Z,6.80
2018-02-14T15:11:23.396Z,9.15
2018-02-14T15:13:51.363Z,7.03
2018-02-14T15:16:19.259Z,6.45
2018-02-14T15:18:47.163Z,5.80
2018-02-14T15:21:15.064Z,6.07
2018-02-14T15:23:42.980Z,6.68
2018-02-14T15:26:10.871Z,6.60
2018-02-14T15:28:38.772Z,6.10
2018-02-14T15:31:06.680Z,5.35
2018-02-14T15:33:34.572Z,5.57
2018-02-14T15:36:02.468Z,5.72
2018-02-14T15:38:30.363Z,5.43
2018-02-14T15:40:58.244Z,5.18
2018-02-14T15:43:26.195Z,5.45
2018-02-14T15:45:54.100Z,5.40
2018-02-14T15:48:22.000Z,4.40
2018-02-14T15:50:49.939Z,5.20
2018-02-14T15:53:17.832Z,5.50
2018-02-14T15:55:45.732Z,5.40
2018-02-14T15:58:13.628Z,5.20
2018-02-14T16:00:41.535Z,4.55
2018-02-14T16:03:09.432Z,4.87
2018-02-14T16:05:37.349Z,5.95
2018-02-14T16:08:05.236Z,5.68
2018-02-14T16:10:33.129Z,6.03
2018-02-14T16:13:01.036Z,5.03
2018-02-14T16:15:28.939Z,6.03
2018-02-14T16:17:56.819Z,5.97
2018-02-14T16:20:24.716Z,5.50
2018-02-14T16:22:52.611Z,5.10
2018-02-14T16:25:20.502Z,5.07
2018-02-14T16:27:48.415Z,5.45
2018-02-14T16:30:16.324Z,5.15
2018-02-14T16:32:44.231Z,6.47
2018-02-14T16:35:12.128Z,4.75
2018-02-14T16:37:40.032Z,5.47
2018-02-14T16:40:07.907Z,5.20
2018-02-14T16:42:35.795Z,5.07
2018-02-14T16:45:03.692Z,5.10
2018-02-14T16:47:31.571Z,5.37
2018-02-14T16:49:59.472Z,4.45
2018-02-14T16:52:27.356Z,6.20
2018-02-14T16:54:55.232Z,4.95
2018-02-14T16:57:23.123Z,6.30
2018-02-14T16:59:51.008Z,6.55
2018-02-14T17:02:18.889Z,6.25
2018-02-14T17:04:46.795Z,6.03
2018-02-14T17:07:14.700Z,5.20
2018-02-14T17:09:42.588Z,5.32
2018-02-14T17:12:10.492Z,5.00
2018-02-14T17:14:38.404Z,5.43
2018-02-14T17:17:06.297Z,5.80
2018-02-14T17:19:34.204Z,5.30
2018-02-14T17:22:02.108Z,5.85
2018-02-14T17:24:29.998Z,6.65
2018-02-14T17:26:57.928Z,5.93
2018-02-14T17:29:25.884Z,6.00
2018-02-14T17:31:53.759Z,6.45
2018-02-14T17:34:21.655Z,6.80
2018-02-14T17:36:49.548Z,6.30
2018-02-14T17:39:18.488Z,6.57
2018-02-14T17:41:46.388Z,6.65
2018-02-14T17:44:16.324Z,6.72
2018-02-14T17:46:44.244Z,6.22
2018-02-14T17:49:12.135Z,6.40
2018-02-14T17:51:40.020Z,4.65
2018-02-14T17:54:07.928Z,7.00
2018-02-14T17:56:35.848Z,6.45
2018-02-14T17:59:03.744Z,7.03
2018-02-14T18:01:31.640Z,5.60
2018-02-14T18:03:59.582Z,5.93
2018-02-14T18:06:27.468Z,7.07
2018-02-14T18:08:55.394Z,7.20
2018-02-14T18:11:23.272Z,7.68
2018-02-14T18:13:51.293Z,7.78
2018-02-14T18:16:19.208Z,7.35
2018-02-14T18:18:47.103Z,7.15
2018-02-14T18:21:14.984Z,7.55
2018-02-14T18:23:42.896Z,6.90
2018-02-14T18:26:10.776Z,8.07
2018-02-14T18:28:39.677Z,7.60
2018-02-14T18:31:07.651Z,7.78
2018-02-14T18:33:35.796Z,7.95
2018-02-14T18:36:03.688Z,8.70
2018-02-14T18:38:31.604Z,7.28
2018-02-14T18:40:59.496Z,7.93
2018-02-14T18:43:27.408Z,9.07
2018-02-14T18:45:55.320Z,8.23
2018-02-14T18:48:23.218Z,8.13
2018-02-14T18:50:51.107Z,7.55
2018-02-14T18:53:19.032Z,10.02
2018-02-14T18:55:46.912Z,8.32
2018-02-14T18:58:14.804Z,8.82
2018-02-14T19:00:42.726Z,9.18
2018-02-14T19:03:10.612Z,9.80
2018-02-14T19:05:38.496Z,9.80
2018-02-14T19:08:06.408Z,10.13
2018-02-14T19:10:34.296Z,9.52
2018-02-14T19:13:02.212Z,8.63
2018-02-14T19:15:31.172Z,12.55
2018-02-14T19:17:59.081Z,10.68
2018-02-14T19:20:26.999Z,9.43
2018-02-14T19:22:54.914Z,8.90
2018-02-14T19:25:22.800Z,8.57
2018-02-14T19:27:50.696Z,9.75
2018-02-14T19:30:18.606Z,8.65
2018-02-14T19:32:46.502Z,9.05
2018-02-14T19:35:14.433Z,10.00
2018-02-14T19:37:42.333Z,9.52
2018-02-14T19:40:10.244Z,9.48
2018-02-14T19:42:38.165Z,9.35
2018-02-14T19:45:06.145Z,9.20
2018-02-14T19:47:34.044Z,9.50
2018-02-14T19:50:03.221Z,8.45
2018-02-14T19:52:31.180Z,8.52
2018-02-14T19:54:59.060Z,9.63
2018-02-14T19:57:27.015Z,9.90
2018-02-14T19:59:54.924Z,9.00
2018-02-14T20:02:22.872Z,8.68
2018-02-14T20:04:50.781Z,9.75
2018-02-14T20:07:18.720Z,11.30
2018-02-14T20:09:46.612Z,10.48
2018-02-14T20:12:14.513Z,10.93
2018-02-14T20:14:42.419Z,10.32
2018-02-14T20:17:10.311Z,11.70
2018-02-14T20:19:38.216Z,8.70
2018-02-14T20:22:06.127Z,11.20
2018-02-14T20:24:34.020Z,9.52
2018-02-14T20:27:01.928Z,10.07
2018-02-14T20:29:29.824Z,8.90
2018-02-14T20:31:57.887Z,10.55
2018-02-14T20:34:25.808Z,10.95
2018-02-14T20:36:54.735Z,10.45
2018-02-14T20:39:22.644Z,9.63
2018-02-14T20:41:51.636Z,11.10
2018-02-14T20:44:19.536Z,9.63
2018-02-14T20:46:47.461Z,9.07
2018-02-14T20:49:15.344Z,10.55
2018-02-14T20:51:44.323Z,10.52
2018-02-14T20:54:12.228Z,9.57
2018-02-14T20:56:40.143Z,10.52
2018-02-14T20:59:08.050Z,10.00
2018-02-14T21:01:35.940Z,9.90
2018-02-14T21:04:03.900Z,8.48
2018-02-14T21:06:31.874Z,10.98
2018-02-14T21:08:59.832Z,9.38
2018-02-14T21:11:27.810Z,10.52
2018-02-14T21:13:55.782Z,11.12
2018-02-14T21:16:23.742Z,10.82
2018-02-14T21:18:51.727Z,9.65
2018-02-14T21:21:19.686Z,9.05
2018-02-14T21:23:47.684Z,9.40
2018-02-14T21:26:15.642Z,9.68
2018-02-14T21:28:43.576Z,10.85
2018-02-14T21:31:11.478Z,9.70
2018-02-14T21:33:39.444Z,11.23
2018-02-14T21:36:07.352Z,9.52
2018-02-14T21:38:35.228Z,10.27
2018-02-14T21:41:03.128Z,9.73
2018-02-14T21:43:31.090Z,10.63
2018-02-14T21:45:58.988Z,10.02
2018-02-14T21:48:26.894Z,9.45
2018-02-14T21:50:54.809Z,10.60
2018-02-14T21:53:22.704Z,9.20
2018-02-14T21:55:50.605Z,11.00
2018-02-14T21:58:18.508Z,10.65
2018-02-14T22:00:46.395Z,9.93
2018-02-14T22:03:14.292Z,11.38
2018-02-14T22:05:42.192Z,10.77
2018-02-14T22:08:10.080Z,9.80
2018-02-14T22:10:38.016Z,11.85
2018-02-14T22:13:05.921Z,11.55
2018-02-14T22:15:33.796Z,10.27
2018-02-14T22:18:01.704Z,11.52
2018-02-14T22:20:29.612Z,9.95
2018-02-14T22:22:57.500Z,10.40
2018-02-14T22:25:25.403Z,11.25
2018-02-14T22:27:53.325Z,10.80
2018-02-14T22:30:21.229Z,12.15
2018-02-14T22:32:49.143Z,11.25
2018-02-14T22:35:17.051Z,10.82
2018-02-14T22:37:44.941Z,11.25
2018-02-14T22:40:12.857Z,9.63
2018-02-14T22:42:40.752Z,9.95
2018-02-14T22:45:09.744Z,11.70
2018-02-14T22:47:40.144Z,12.60
2018-02-14T22:50:08.356Z,10.93
2018-02-14T22:52:37.367Z,10.80
2018-02-14T22:55:05.724Z,12.00
2018-02-14T22:57:33.612Z,11.10
2018-02-14T23:00:01.532Z,10.38
2018-02-14T23:02:29.430Z,11.20
2018-02-14T23:04:57.355Z,11.23
2018-02-14T23:07:25.252Z,11.95
2018-02-14T23:09:53.136Z,10.60
2018-02-14T23:12:22.089Z,12.20
2018-02-14T23:14:49.987Z,12.07
2018-02-14T23:17:17.872Z,11.82
2018-02-14T23:19:45.773Z,12.25
2018-02-14T23:22:13.684Z,10.57
2018-02-14T23:24:41.576Z,12.30
2018-02-14T23:27:09.503Z,12.07
2018-02-14T23:29:37.659Z,13.27
2018-02-14T23:32:05.561Z,11.23
2018-02-14T23:34:33.456Z,11.38
2018-02-14T23:37:01.356Z,11.88
2018-02-14T23:39:29.265Z,11.70
2018-02-14T23:41:57.188Z,13.90
2018-02-14T23:44:25.084Z,12.60
2018-02-14T23:46:52.984Z,12.93
2018-02-14T23:49:20.892Z,13.23
2018-02-14T23:51:48.793Z,13.48
2018-02-14T23:54:16.680Z,13.73
2018-02-14T23:56:44.574Z,13.57
2018-02-14T23:59:12.488Z,12.35
